Terminal Aerodrome Forecast
Issued by NWS Rapid City, SD

Home | Current Version | Previous Version | Graphics & Text | Print | Product List | Glossary On
Versions: 1 2 3 4 5 6 7 8 9 10 11 12 13 14 15 16 17
000
FTUS43 KUNR 010431 AAA
TAFRAP
TAF AMD
KRAP 010431Z 0105/0124 05007KT P6SM FEW150
      TEMPO 0105/0106 P6SM TSRA BKN050CB
     FM010700 31006KT P6SM SKC
     FM011600 35014G24KT P6SM SKC=

USA.gov is the U.S. government's official web portal to all federal, state and local government web resources and services.